SAS49M EKCH-EHAM
Flight info
| Callsign | SAS49M |
|---|---|
| Flight time | N/A |
| Altitude | 38000 |
| Route | LANGO2A LANGO M611 ALASA DCT WANZA N872 KUBAT T200 BLUFA BLUFA1A |
| Aircraft | A319/M-SDE3FGHIRWY/LB1 |
Departure
| Time | 2026-04-24 13:55 |
|---|---|
| Airport | Copenhagen Kastrup Airport (EKCH) |
Arrival
| Time | N/A |
|---|---|
| Airport | Amsterdam Airport Schiphol (EHAM) |
| Time | Latitude | Longitude | Altitude | Speed | Heading |
|---|---|---|---|---|---|
| 2026-04-24 13:12 | 55.62755 | 12.64478 | 24 ft | 0 kts | 102° |
| 2026-04-24 13:40 | 55.62755 | 12.64477 | 24 ft | 1 kts | 102° |
| 2026-04-24 13:40 | 55.62760 | 12.64435 | 24 ft | 4 kts | 102° |
| 2026-04-24 13:40 | 55.62763 | 12.64400 | 28 ft | 4 kts | 60° |
| 2026-04-24 13:40 | 55.62746 | 12.64375 | 28 ft | 3 kts | 27° |
| 2026-04-24 13:41 | 55.62722 | 12.64354 | 26 ft | 3 kts | 27° |
| 2026-04-24 13:41 | 55.62703 | 12.64337 | 27 ft | 4 kts | 22° |
| 2026-04-24 13:41 | 55.62687 | 12.64326 | 26 ft | 3 kts | 21° |
| 2026-04-24 13:41 | 55.62659 | 12.64307 | 25 ft | 4 kts | 22° |
| 2026-04-24 13:42 | 55.62634 | 12.64287 | 28 ft | 4 kts | 29° |
| 2026-04-24 13:42 | 55.62612 | 12.64263 | 25 ft | 4 kts | 46° |
| 2026-04-24 13:42 | 55.62600 | 12.64224 | 27 ft | 4 kts | 92° |
| 2026-04-24 13:42 | 55.62604 | 12.64194 | 24 ft | 3 kts | 122° |
| 2026-04-24 13:43 | 55.62617 | 12.64156 | 24 ft | 4 kts | 123° |
| 2026-04-24 13:43 | 55.62629 | 12.64125 | 26 ft | 0 kts | 123° |
| 2026-04-24 13:45 | 55.62615 | 12.64163 | 24 ft | 7 kts | 124° |
| 2026-04-24 13:46 | 55.62583 | 12.64244 | 24 ft | 7 kts | 124° |
| 2026-04-24 13:46 | 55.62558 | 12.64312 | 24 ft | 6 kts | 123° |
| 2026-04-24 13:46 | 55.62537 | 12.64369 | 25 ft | 5 kts | 123° |
| 2026-04-24 13:46 | 55.62525 | 12.64405 | 24 ft | 1 kts | 121° |
| 2026-04-24 13:47 | 55.62519 | 12.64420 | 25 ft | 2 kts | 122° |
| 2026-04-24 13:47 | 55.62503 | 12.64466 | 24 ft | 7 kts | 122° |
| 2026-04-24 13:47 | 55.62469 | 12.64558 | 24 ft | 9 kts | 123° |
| 2026-04-24 13:47 | 55.62436 | 12.64645 | 25 ft | 8 kts | 123° |
| 2026-04-24 13:48 | 55.62403 | 12.64734 | 24 ft | 9 kts | 123° |
| 2026-04-24 13:48 | 55.62365 | 12.64836 | 24 ft | 10 kts | 123° |
| 2026-04-24 13:48 | 55.62322 | 12.64950 | 24 ft | 12 kts | 123° |
| 2026-04-24 13:48 | 55.62276 | 12.65076 | 25 ft | 13 kts | 123° |
| 2026-04-24 13:49 | 55.62212 | 12.65172 | 27 ft | 13 kts | 184° |
| 2026-04-24 13:49 | 55.62132 | 12.65089 | 24 ft | 13 kts | 213° |
| 2026-04-24 13:49 | 55.62052 | 12.64996 | 24 ft | 14 kts | 214° |
| 2026-04-24 13:49 | 55.61989 | 12.64922 | 24 ft | 15 kts | 212° |
| 2026-04-24 13:50 | 55.61926 | 12.64851 | 24 ft | 14 kts | 213° |
| 2026-04-24 13:50 | 55.61848 | 12.64761 | 25 ft | 13 kts | 212° |
| 2026-04-24 13:50 | 55.61777 | 12.64680 | 24 ft | 12 kts | 213° |
| 2026-04-24 13:50 | 55.61711 | 12.64604 | 24 ft | 11 kts | 213° |
| 2026-04-24 13:51 | 55.61650 | 12.64533 | 24 ft | 10 kts | 213° |
| 2026-04-24 13:51 | 55.61590 | 12.64465 | 24 ft | 10 kts | 213° |
| 2026-04-24 13:51 | 55.61533 | 12.64399 | 24 ft | 9 kts | 213° |
| 2026-04-24 13:51 | 55.61480 | 12.64337 | 25 ft | 8 kts | 213° |
| 2026-04-24 13:52 | 55.61433 | 12.64283 | 24 ft | 8 kts | 213° |
| 2026-04-24 13:52 | 55.61388 | 12.64230 | 25 ft | 8 kts | 213° |
| 2026-04-24 13:52 | 55.61345 | 12.64181 | 24 ft | 7 kts | 213° |
| 2026-04-24 13:52 | 55.61301 | 12.64130 | 25 ft | 9 kts | 213° |
| 2026-04-24 13:53 | 55.61233 | 12.64054 | 26 ft | 15 kts | 212° |
| 2026-04-24 13:53 | 55.61126 | 12.63933 | 24 ft | 20 kts | 212° |
| 2026-04-24 13:53 | 55.61000 | 12.63789 | 24 ft | 23 kts | 213° |
| 2026-04-24 13:53 | 55.60880 | 12.63649 | 24 ft | 18 kts | 213° |
| 2026-04-24 13:54 | 55.60782 | 12.63611 | 25 ft | 16 kts | 144° |
| 2026-04-24 13:54 | 55.60703 | 12.63772 | 24 ft | 14 kts | 130° |
| 2026-04-24 13:54 | 55.60687 | 12.63887 | 25 ft | 11 kts | 41° |
| 2026-04-24 13:54 | 55.60706 | 12.63914 | 28 ft | 7 kts | 41° |
| 2026-04-24 13:55 | 55.60925 | 12.64250 | 25 ft | 75 kts | 41° |
| 2026-04-24 13:55 | 55.61465 | 12.65087 | 23 ft | 130 kts | 40° |
| 2026-04-24 13:55 | 55.62243 | 12.66250 | 319 ft | 149 kts | 38° |
| 2026-04-24 13:55 | 55.63018 | 12.67470 | 955 ft | 151 kts | 36° |
| 2026-04-24 13:56 | 55.63809 | 12.68705 | 1576 ft | 153 kts | 34° |
| 2026-04-24 13:56 | 55.64626 | 12.69977 | 2011 ft | 165 kts | 35° |
| 2026-04-24 13:56 | 55.65561 | 12.71398 | 2275 ft | 189 kts | 34° |
| 2026-04-24 13:56 | 55.66611 | 12.72951 | 2582 ft | 209 kts | 35° |
| 2026-04-24 13:57 | 55.67813 | 12.74726 | 2971 ft | 234 kts | 36° |
| 2026-04-24 13:57 | 55.69011 | 12.76869 | 3648 ft | 255 kts | 51° |
| 2026-04-24 13:57 | 55.69709 | 12.79788 | 4579 ft | 269 kts | 75° |
| 2026-04-24 13:57 | 55.69697 | 12.83159 | 5518 ft | 281 kts | 99° |
| 2026-04-24 13:58 | 55.68870 | 12.86342 | 6425 ft | 292 kts | 126° |
| 2026-04-24 13:58 | 55.68219 | 12.87566 | 6810 ft | 296 kts | 140° |